PWSweather.com
Personal Weather Stations
Station Observations

ChardChardGB

Lat: 50.877408, Lon: -2.94964741

Elevation: 341

Station Type: WS3083

http://www.merriott-astro.co.uk/weather/index.htm

High Low Average
Temperature 55.4°F13.0°C 45.0°F7.2°C 48.8°F9.3°C
Dew Point 42.6°F5.9°C 38.7°F3.7°C 40.9°F4.9°C
Winds 8.0 mph 12.9 kmh 0.4 mph 0.6 kmh 5.0 mph E8.0 kmh E
Wind Gusts 11.4 mph18.3 kmh 2.2 mph3.5 kmh 8.0 mph12.9 kmh
Humidity 86% 61% 74%
Pressure 29.64 in1003.7 mb 29.46 in997.6 mb -
Precipitation 0.00 in0.0 mm - -
Hour Temp Dew Point Humidity Winds Wind Gusts Pressure Precip Precip Rate Daily Precip Total
12:00 AM 46.6°F8.1°C 42.6°F5.9°C 86% 4.6 mph N7.4 kmh N 9.2 mph14.8 kmh 29.46 in997.6 mb 0.00 in0.0 mm 0.00 in0.0 mm 0.00 in0.0 mm
12:10 AM 46.6°F8.1°C 42.6°F5.9°C 86% 4.6 mph N7.4 kmh N 9.2 mph14.8 kmh 29.46 in997.6 mb 0.00 in0.0 mm 0.00 in0.0 mm 0.00 in0.0 mm
12:20 AM 46.6°F8.1°C 42.6°F5.9°C 86% 4.6 mph N7.4 kmh N 9.2 mph14.8 kmh 29.46 in997.6 mb 0.00 in0.0 mm 0.00 in0.0 mm 0.00 in0.0 mm
12:30 AM 46.6°F8.1°C 42.6°F5.9°C 86% 4.6 mph N7.4 kmh N 9.2 mph14.8 kmh 29.47 in998.0 mb 0.00 in0.0 mm 0.00 in0.0 mm 0.00 in0.0 mm
12:40 AM 46.6°F8.1°C 42.6°F5.9°C 86% 4.6 mph N7.4 kmh N 9.2 mph14.8 kmh 29.47 in998.0 mb 0.00 in0.0 mm 0.00 in0.0 mm 0.00 in0.0 mm
12:50 AM 46.6°F8.1°C 42.6°F5.9°C 86% 4.6 mph N7.4 kmh N 9.2 mph14.8 kmh 29.48 in998.3 mb 0.00 in0.0 mm 0.00 in0.0 mm 0.00 in0.0 mm
01:00 AM 46.6°F8.1°C 42.6°F5.9°C 86% 4.6 mph N7.4 kmh N 9.2 mph14.8 kmh 29.46 in997.6 mb 0.00 in0.0 mm 0.00 in0.0 mm 0.00 in0.0 mm
01:10 AM 46.6°F8.1°C 42.6°F5.9°C 86% 4.6 mph N7.4 kmh N 9.2 mph14.8 kmh 29.47 in998.0 mb 0.00 in0.0 mm 0.00 in0.0 mm 0.00 in0.0 mm
01:20 AM 46.6°F8.1°C 42.6°F5.9°C 86% 4.6 mph N7.4 kmh N 9.2 mph14.8 kmh 29.47 in998.0 mb 0.00 in0.0 mm 0.00 in0.0 mm 0.00 in0.0 mm
01:30 AM 46.6°F8.1°C 42.6°F5.9°C 86% 4.6 mph N7.4 kmh N 9.2 mph14.8 kmh 29.47 in998.0 mb 0.00 in0.0 mm 0.00 in0.0 mm 0.00 in0.0 mm
01:40 AM 46.6°F8.1°C 42.6°F5.9°C 86% 4.6 mph N7.4 kmh N 9.2 mph14.8 kmh 29.48 in998.3 mb 0.00 in0.0 mm 0.00 in0.0 mm 0.00 in0.0 mm
01:50 AM 46.6°F8.1°C 42.6°F5.9°C 86% 4.6 mph N7.4 kmh N 9.2 mph14.8 kmh 29.48 in998.3 mb 0.00 in0.0 mm 0.00 in0.0 mm 0.00 in0.0 mm
02:00 AM 46.6°F8.1°C 42.6°F5.9°C 86% 4.6 mph N7.4 kmh N 9.2 mph14.8 kmh 29.49 in998.6 mb 0.00 in0.0 mm 0.00 in0.0 mm 0.00 in0.0 mm
02:10 AM 46.6°F8.1°C 42.6°F5.9°C 86% 4.6 mph N7.4 kmh N 9.2 mph14.8 kmh 29.50 in999.0 mb 0.00 in0.0 mm 0.00 in0.0 mm 0.00 in0.0 mm
02:20 AM 46.6°F8.1°C 42.6°F5.9°C 86% 4.6 mph N7.4 kmh N 9.2 mph14.8 kmh 29.50 in999.0 mb 0.00 in0.0 mm 0.00 in0.0 mm 0.00 in0.0 mm
02:30 AM 46.6°F8.1°C 42.6°F5.9°C 86% 4.6 mph N7.4 kmh N 9.2 mph14.8 kmh 29.49 in998.6 mb 0.00 in0.0 mm 0.00 in0.0 mm 0.00 in0.0 mm
02:40 AM 46.6°F8.1°C 42.6°F5.9°C 86% 4.6 mph N7.4 kmh N 9.2 mph14.8 kmh 29.50 in999.0 mb 0.00 in0.0 mm 0.00 in0.0 mm 0.00 in0.0 mm
02:50 AM 46.6°F8.1°C 42.6°F5.9°C 86% 4.6 mph N7.4 kmh N 9.2 mph14.8 kmh 29.50 in999.0 mb 0.00 in0.0 mm 0.00 in0.0 mm 0.00 in0.0 mm
03:00 AM 46.6°F8.1°C 42.6°F5.9°C 86% 4.6 mph N7.4 kmh N 9.2 mph14.8 kmh 29.50 in999.0 mb 0.00 in0.0 mm 0.00 in0.0 mm 0.00 in0.0 mm
03:10 AM 46.6°F8.1°C 42.6°F5.9°C 86% 4.6 mph N7.4 kmh N 9.2 mph14.8 kmh 29.50 in999.0 mb 0.00 in0.0 mm 0.00 in0.0 mm 0.00 in0.0 mm
03:20 AM 46.6°F8.1°C 42.6°F5.9°C 86% 4.6 mph N7.4 kmh N 9.2 mph14.8 kmh 29.50 in999.0 mb 0.00 in0.0 mm 0.00 in0.0 mm 0.00 in0.0 mm
03:30 AM 46.6°F8.1°C 42.6°F5.9°C 86% 4.6 mph N7.4 kmh N 9.2 mph14.8 kmh 29.50 in999.0 mb 0.00 in0.0 mm 0.00 in0.0 mm 0.00 in0.0 mm
03:40 AM 46.6°F8.1°C 42.6°F5.9°C 86% 4.6 mph N7.4 kmh N 9.2 mph14.8 kmh 29.50 in999.0 mb 0.00 in0.0 mm 0.00 in0.0 mm 0.00 in0.0 mm
03:50 AM 46.6°F8.1°C 42.6°F5.9°C 86% 4.6 mph N7.4 kmh N 9.2 mph14.8 kmh 29.50 in999.0 mb 0.00 in0.0 mm 0.00 in0.0 mm 0.00 in0.0 mm
04:00 AM 46.6°F8.1°C 42.6°F5.9°C 86% 4.6 mph N7.4 kmh N 9.2 mph14.8 kmh 29.50 in999.0 mb 0.00 in0.0 mm 0.00 in0.0 mm 0.00 in0.0 mm
04:10 AM 46.6°F8.1°C 42.6°F5.9°C 86% 4.6 mph N7.4 kmh N 9.2 mph14.8 kmh 29.50 in999.0 mb 0.00 in0.0 mm 0.00 in0.0 mm 0.00 in0.0 mm
04:20 AM 46.6°F8.1°C 42.6°F5.9°C 86% 4.6 mph N7.4 kmh N 9.2 mph14.8 kmh 29.51 in999.3 mb 0.00 in0.0 mm 0.00 in0.0 mm 0.00 in0.0 mm
04:30 AM 46.6°F8.1°C 42.6°F5.9°C 86% 4.6 mph N7.4 kmh N 9.2 mph14.8 kmh 29.51 in999.3 mb 0.00 in0.0 mm 0.00 in0.0 mm 0.00 in0.0 mm
04:40 AM 46.6°F8.1°C 42.6°F5.9°C 86% 4.6 mph N7.4 kmh N 9.2 mph14.8 kmh 29.51 in999.3 mb 0.00 in0.0 mm 0.00 in0.0 mm 0.00 in0.0 mm
04:50 AM 46.6°F8.1°C 42.6°F5.9°C 86% 4.6 mph N7.4 kmh N 9.2 mph14.8 kmh 29.51 in999.3 mb 0.00 in0.0 mm 0.00 in0.0 mm 0.00 in0.0 mm
05:00 AM 46.6°F8.1°C 42.6°F5.9°C 86% 4.6 mph N7.4 kmh N 9.2 mph14.8 kmh 29.51 in999.3 mb 0.00 in0.0 mm 0.00 in0.0 mm 0.00 in0.0 mm
05:10 AM 46.6°F8.1°C 42.6°F5.9°C 86% 4.6 mph N7.4 kmh N 9.2 mph14.8 kmh 29.52 in999.7 mb 0.00 in0.0 mm 0.00 in0.0 mm 0.00 in0.0 mm
05:20 AM 46.6°F8.1°C 42.6°F5.9°C 86% 4.6 mph N7.4 kmh N 9.2 mph14.8 kmh 29.52 in999.7 mb 0.00 in0.0 mm 0.00 in0.0 mm 0.00 in0.0 mm
05:30 AM 46.6°F8.1°C 42.6°F5.9°C 86% 4.6 mph N7.4 kmh N 9.2 mph14.8 kmh 29.53 in1000.0 mb 0.00 in0.0 mm 0.00 in0.0 mm 0.00 in0.0 mm
05:40 AM 46.6°F8.1°C 42.6°F5.9°C 86% 4.6 mph N7.4 kmh N 9.2 mph14.8 kmh 29.53 in1000.0 mb 0.00 in0.0 mm 0.00 in0.0 mm 0.00 in0.0 mm
05:50 AM 46.6°F8.1°C 42.6°F5.9°C 86% 4.6 mph N7.4 kmh N 9.2 mph14.8 kmh 29.54 in1000.3 mb 0.00 in0.0 mm 0.00 in0.0 mm 0.00 in0.0 mm
06:00 AM 45.5°F7.5°C 40.6°F4.8°C 83% 3.2 mph NNW5.1 kmh NNW 3.8 mph6.1 kmh 29.54 in1000.3 mb 0.00 in0.0 mm 0.00 in0.0 mm 0.00 in0.0 mm
06:10 AM 45.7°F7.6°C 40.8°F4.9°C 83% 4.4 mph NE7.1 kmh NE 6.9 mph11.1 kmh 29.54 in1000.3 mb 0.00 in0.0 mm 0.00 in0.0 mm 0.00 in0.0 mm
06:20 AM 45.9°F7.7°C 41.0°F5.0°C 83% 4.8 mph N7.7 kmh N 8.3 mph13.4 kmh 29.55 in1000.7 mb 0.00 in0.0 mm 0.00 in0.0 mm 0.00 in0.0 mm
06:30 AM 45.7°F7.6°C 40.5°F4.7°C 82% 4.6 mph NW7.4 kmh NW 9.2 mph14.8 kmh 29.55 in1000.7 mb 0.00 in0.0 mm 0.00 in0.0 mm 0.00 in0.0 mm
06:40 AM 45.9°F7.7°C 40.7°F4.8°C 82% 4.2 mph N6.8 kmh N 6.9 mph11.1 kmh 29.56 in1001.0 mb 0.00 in0.0 mm 0.00 in0.0 mm 0.00 in0.0 mm
06:50 AM 46.2°F7.9°C 41.0°F5.0°C 82% 5.4 mph N8.7 kmh N 9.2 mph14.8 kmh 29.56 in1001.0 mb 0.00 in0.0 mm 0.00 in0.0 mm 0.00 in0.0 mm
07:00 AM 46.8°F8.2°C 41.6°F5.3°C 82% 4.1 mph N6.6 kmh N 6.0 mph9.7 kmh 29.56 in1001.0 mb 0.00 in0.0 mm 0.00 in0.0 mm 0.00 in0.0 mm
07:10 AM 47.1°F8.4°C 41.6°F5.3°C 81% 5.6 mph N9.0 kmh N 11.4 mph18.3 kmh 29.56 in1001.0 mb 0.00 in0.0 mm 0.00 in0.0 mm 0.00 in0.0 mm
07:20 AM 47.8°F8.8°C 42.0°F5.6°C 80% 7.2 mph N11.6 kmh N 9.8 mph15.8 kmh 29.56 in1001.0 mb 0.00 in0.0 mm 0.00 in0.0 mm 0.00 in0.0 mm
07:30 AM 48.4°F9.1°C 41.5°F5.3°C 77% 6.4 mph N10.3 kmh N 9.2 mph14.8 kmh 29.57 in1001.4 mb 0.00 in0.0 mm 0.00 in0.0 mm 0.00 in0.0 mm
07:40 AM 48.0°F8.9°C 40.5°F4.7°C 75% 5.1 mph NNE8.2 kmh NNE 8.3 mph13.4 kmh 29.56 in1001.0 mb 0.00 in0.0 mm 0.00 in0.0 mm 0.00 in0.0 mm
07:50 AM 47.5°F8.6°C 40.0°F4.4°C 75% 6.0 mph NNE9.7 kmh NNE 9.2 mph14.8 kmh 29.57 in1001.4 mb 0.00 in0.0 mm 0.00 in0.0 mm 0.00 in0.0 mm
08:00 AM 47.1°F8.4°C 39.3°F4.1°C 74% 6.2 mph NNE10.0 kmh NNE 8.3 mph13.4 kmh 29.57 in1001.4 mb 0.00 in0.0 mm 0.00 in0.0 mm 0.00 in0.0 mm
08:10 AM 47.3°F8.5°C 39.8°F4.3°C 75% 4.4 mph N7.1 kmh N 5.4 mph8.7 kmh 29.58 in1001.7 mb 0.00 in0.0 mm 0.00 in0.0 mm 0.00 in0.0 mm
08:20 AM 47.5°F8.6°C 40.0°F4.4°C 75% 5.1 mph NNE8.2 kmh NNE 6.9 mph11.1 kmh 29.58 in1001.7 mb 0.00 in0.0 mm 0.00 in0.0 mm 0.00 in0.0 mm
08:30 AM 47.7°F8.7°C 39.8°F4.3°C 74% 6.1 mph NW9.8 kmh NW 8.3 mph13.4 kmh 29.58 in1001.7 mb 0.00 in0.0 mm 0.00 in0.0 mm 0.00 in0.0 mm
08:40 AM 47.8°F8.8°C 39.6°F4.2°C 73% 5.9 mph NNW9.5 kmh NNW 9.2 mph14.8 kmh 29.57 in1001.4 mb 0.00 in0.0 mm 0.00 in0.0 mm 0.00 in0.0 mm
08:50 AM 48.6°F9.2°C 40.7°F4.8°C 74% 5.1 mph NE8.2 kmh NE 6.9 mph11.1 kmh 29.58 in1001.7 mb 0.00 in0.0 mm 0.00 in0.0 mm 0.00 in0.0 mm
09:00 AM 48.7°F9.3°C 40.5°F4.7°C 73% 5.5 mph NE8.9 kmh NE 8.3 mph13.4 kmh 29.58 in1001.7 mb 0.00 in0.0 mm 0.00 in0.0 mm 0.00 in0.0 mm
09:10 AM 48.9°F9.4°C 40.3°F4.6°C 72% 4.9 mph N7.9 kmh N 9.2 mph14.8 kmh 29.59 in1002.0 mb 0.00 in0.0 mm 0.00 in0.0 mm 0.00 in0.0 mm
09:20 AM 50.0°F10.0°C 41.3°F5.2°C 72% 5.0 mph N8.0 kmh N 7.6 mph12.2 kmh 29.58 in1001.7 mb 0.00 in0.0 mm 0.00 in0.0 mm 0.00 in0.0 mm
09:30 AM 50.9°F10.5°C 41.8°F5.4°C 71% 4.9 mph NE7.9 kmh NE 6.9 mph11.1 kmh 29.59 in1002.0 mb 0.00 in0.0 mm 0.00 in0.0 mm 0.00 in0.0 mm
09:40 AM 50.5°F10.3°C 41.1°F5.1°C 70% 5.9 mph ENE9.5 kmh ENE 8.3 mph13.4 kmh 29.60 in1002.4 mb 0.00 in0.0 mm 0.00 in0.0 mm 0.00 in0.0 mm
09:50 AM 51.4°F10.8°C 40.9°F4.9°C 67% 5.2 mph NNW8.4 kmh NNW 6.9 mph11.1 kmh 29.59 in1002.0 mb 0.00 in0.0 mm 0.00 in0.0 mm 0.00 in0.0 mm
10:00 AM 51.8°F11.0°C 42.0°F5.6°C 69% 5.4 mph N8.7 kmh N 8.3 mph13.4 kmh 29.59 in1002.0 mb 0.00 in0.0 mm 0.00 in0.0 mm 0.00 in0.0 mm
10:10 AM 52.5°F11.4°C 41.9°F5.5°C 67% 4.8 mph N7.7 kmh N 9.8 mph15.8 kmh 29.59 in1002.0 mb 0.00 in0.0 mm 0.00 in0.0 mm 0.00 in0.0 mm
10:20 AM 53.1°F11.7°C 41.6°F5.3°C 65% 6.0 mph NE9.7 kmh NE 9.2 mph14.8 kmh 29.60 in1002.4 mb 0.00 in0.0 mm 0.00 in0.0 mm 0.00 in0.0 mm
10:30 AM 52.5°F11.4°C 40.3°F4.6°C 63% 6.4 mph N10.3 kmh N 9.2 mph14.8 kmh 29.59 in1002.0 mb 0.00 in0.0 mm 0.00 in0.0 mm 0.00 in0.0 mm
10:40 AM 55.4°F13.0°C 42.2°F5.7°C 61% 4.6 mph N7.4 kmh N 7.6 mph12.2 kmh 29.60 in1002.4 mb 0.00 in0.0 mm 0.00 in0.0 mm 0.00 in0.0 mm
10:50 AM 53.1°F11.7°C 40.4°F4.7°C 62% 6.8 mph NW10.9 kmh NW 11.4 mph18.3 kmh 29.60 in1002.4 mb 0.00 in0.0 mm 0.00 in0.0 mm 0.00 in0.0 mm
11:00 AM 52.7°F11.5°C 40.5°F4.7°C 63% 5.6 mph NW9.0 kmh NW 8.3 mph13.4 kmh 29.60 in1002.4 mb 0.00 in0.0 mm 0.00 in0.0 mm 0.00 in0.0 mm
11:10 AM 52.0°F11.1°C 40.6°F4.8°C 65% 5.3 mph NNW8.5 kmh NNW 6.9 mph11.1 kmh 29.60 in1002.4 mb 0.00 in0.0 mm 0.00 in0.0 mm 0.00 in0.0 mm
11:20 AM 51.4°F10.8°C 40.1°F4.5°C 65% 5.4 mph NE8.7 kmh NE 7.6 mph12.2 kmh 29.61 in1002.7 mb 0.00 in0.0 mm 0.00 in0.0 mm 0.00 in0.0 mm
11:30 AM 51.1°F10.6°C 40.5°F4.7°C 67% 5.6 mph NNW9.0 kmh NNW 8.3 mph13.4 kmh 29.60 in1002.4 mb 0.00 in0.0 mm 0.00 in0.0 mm 0.00 in0.0 mm
11:40 AM 51.1°F10.6°C 40.9°F4.9°C 68% 4.9 mph N7.9 kmh N 6.9 mph11.1 kmh 29.60 in1002.4 mb 0.00 in0.0 mm 0.00 in0.0 mm 0.00 in0.0 mm
11:50 AM 51.3°F10.7°C 41.1°F5.1°C 68% 5.0 mph NW8.0 kmh NW 9.8 mph15.8 kmh 29.61 in1002.7 mb 0.00 in0.0 mm 0.00 in0.0 mm 0.00 in0.0 mm
12:00 PM 51.8°F11.0°C 41.2°F5.1°C 67% 4.4 mph N7.1 kmh N 6.0 mph9.7 kmh 29.60 in1002.4 mb 0.00 in0.0 mm 0.00 in0.0 mm 0.00 in0.0 mm
12:10 PM 52.0°F11.1°C 40.6°F4.8°C 65% 6.0 mph NW9.7 kmh NW 9.2 mph14.8 kmh 29.60 in1002.4 mb 0.00 in0.0 mm 0.00 in0.0 mm 0.00 in0.0 mm
12:20 PM 52.5°F11.4°C 41.1°F5.1°C 65% 5.9 mph NNE9.5 kmh NNE 7.6 mph12.2 kmh 29.60 in1002.4 mb 0.00 in0.0 mm 0.00 in0.0 mm 0.00 in0.0 mm
12:30 PM 53.1°F11.7°C 41.2°F5.1°C 64% 6.2 mph NNE10.0 kmh NNE 8.3 mph13.4 kmh 29.60 in1002.4 mb 0.00 in0.0 mm 0.00 in0.0 mm 0.00 in0.0 mm
12:40 PM 52.9°F11.6°C 41.0°F5.0°C 64% 6.4 mph NNW10.3 kmh NNW 9.8 mph15.8 kmh 29.60 in1002.4 mb 0.00 in0.0 mm 0.00 in0.0 mm 0.00 in0.0 mm
12:50 PM 53.6°F12.0°C 41.3°F5.2°C 63% 5.8 mph N9.3 kmh N 9.8 mph15.8 kmh 29.60 in1002.4 mb 0.00 in0.0 mm 0.00 in0.0 mm 0.00 in0.0 mm
01:00 PM 53.4°F11.9°C 40.7°F4.8°C 62% 5.9 mph NE9.5 kmh NE 8.3 mph13.4 kmh 29.61 in1002.7 mb 0.00 in0.0 mm 0.00 in0.0 mm 0.00 in0.0 mm
01:10 PM 53.6°F12.0°C 40.9°F4.9°C 62% 7.0 mph NNE11.3 kmh NNE 9.8 mph15.8 kmh 29.61 in1002.7 mb 0.00 in0.0 mm 0.00 in0.0 mm 0.00 in0.0 mm
01:20 PM 53.6°F12.0°C 40.9°F4.9°C 62% 7.2 mph NE11.6 kmh NE 9.8 mph15.8 kmh 29.60 in1002.4 mb 0.00 in0.0 mm 0.00 in0.0 mm 0.00 in0.0 mm
01:30 PM 52.7°F11.5°C 41.3°F5.2°C 65% 7.5 mph E12.1 kmh E 9.8 mph15.8 kmh 29.60 in1002.4 mb 0.00 in0.0 mm 0.00 in0.0 mm 0.00 in0.0 mm
01:40 PM 53.4°F11.9°C 42.4°F5.8°C 66% 6.6 mph NE10.6 kmh NE 9.2 mph14.8 kmh 29.60 in1002.4 mb 0.00 in0.0 mm 0.00 in0.0 mm 0.00 in0.0 mm
01:50 PM 53.4°F11.9°C 41.2°F5.1°C 63% 7.5 mph N12.1 kmh N 8.3 mph13.4 kmh 29.60 in1002.4 mb 0.00 in0.0 mm 0.00 in0.0 mm 0.00 in0.0 mm
02:00 PM 53.2°F11.8°C 40.6°F4.8°C 62% 6.9 mph N11.1 kmh N 9.2 mph14.8 kmh 29.60 in1002.4 mb 0.00 in0.0 mm 0.00 in0.0 mm 0.00 in0.0 mm
02:10 PM 52.7°F11.5°C 40.5°F4.7°C 63% 6.7 mph ENE10.8 kmh ENE 9.2 mph14.8 kmh 29.59 in1002.0 mb 0.00 in0.0 mm 0.00 in0.0 mm 0.00 in0.0 mm
02:20 PM 52.7°F11.5°C 40.9°F4.9°C 64% 6.7 mph N10.8 kmh N 11.4 mph18.3 kmh 29.60 in1002.4 mb 0.00 in0.0 mm 0.00 in0.0 mm 0.00 in0.0 mm
02:30 PM 52.3°F11.3°C 40.1°F4.5°C 63% 8.0 mph NE12.9 kmh NE 11.4 mph18.3 kmh 29.60 in1002.4 mb 0.00 in0.0 mm 0.00 in0.0 mm 0.00 in0.0 mm
02:40 PM 52.9°F11.6°C 40.6°F4.8°C 63% 7.0 mph ENE11.3 kmh ENE 11.4 mph18.3 kmh 29.60 in1002.4 mb 0.00 in0.0 mm 0.00 in0.0 mm 0.00 in0.0 mm
02:50 PM 52.9°F11.6°C 40.2°F4.6°C 62% 6.6 mph E10.6 kmh E 10.7 mph17.2 kmh 29.60 in1002.4 mb 0.00 in0.0 mm 0.00 in0.0 mm 0.00 in0.0 mm
03:00 PM 52.3°F11.3°C 39.7°F4.3°C 62% 7.0 mph NE11.3 kmh NE 8.3 mph13.4 kmh 29.60 in1002.4 mb 0.00 in0.0 mm 0.00 in0.0 mm 0.00 in0.0 mm
03:10 PM 52.2°F11.2°C 39.5°F4.2°C 62% 6.3 mph NE10.1 kmh NE 9.8 mph15.8 kmh 29.60 in1002.4 mb 0.00 in0.0 mm 0.00 in0.0 mm 0.00 in0.0 mm
03:20 PM 52.2°F11.2°C 39.5°F4.2°C 62% 6.4 mph NNE10.3 kmh NNE 9.8 mph15.8 kmh 29.60 in1002.4 mb 0.00 in0.0 mm 0.00 in0.0 mm 0.00 in0.0 mm
03:30 PM 52.7°F11.5°C 40.1°F4.5°C 62% 6.4 mph N10.3 kmh N 9.2 mph14.8 kmh 29.60 in1002.4 mb 0.00 in0.0 mm 0.00 in0.0 mm 0.00 in0.0 mm
03:40 PM 52.7°F11.5°C 40.1°F4.5°C 62% 5.7 mph ENE9.2 kmh ENE 8.3 mph13.4 kmh 29.61 in1002.7 mb 0.00 in0.0 mm 0.00 in0.0 mm 0.00 in0.0 mm
03:50 PM 52.9°F11.6°C 40.2°F4.6°C 62% 5.3 mph NE8.5 kmh NE 7.6 mph12.2 kmh 29.60 in1002.4 mb 0.00 in0.0 mm 0.00 in0.0 mm 0.00 in0.0 mm
04:00 PM 52.7°F11.5°C 39.6°F4.2°C 61% 6.2 mph ENE10.0 kmh ENE 8.3 mph13.4 kmh 29.60 in1002.4 mb 0.00 in0.0 mm 0.00 in0.0 mm 0.00 in0.0 mm
04:10 PM 52.3°F11.3°C 40.1°F4.5°C 63% 6.1 mph NE9.8 kmh NE 8.3 mph13.4 kmh 29.61 in1002.7 mb 0.00 in0.0 mm 0.00 in0.0 mm 0.00 in0.0 mm
04:20 PM 52.0°F11.1°C 40.2°F4.6°C 64% 5.8 mph ENE9.3 kmh ENE 7.6 mph12.2 kmh 29.61 in1002.7 mb 0.00 in0.0 mm 0.00 in0.0 mm 0.00 in0.0 mm
04:30 PM 51.4°F10.8°C 40.1°F4.5°C 65% 6.2 mph ENE10.0 kmh ENE 8.3 mph13.4 kmh 29.61 in1002.7 mb 0.00 in0.0 mm 0.00 in0.0 mm 0.00 in0.0 mm
04:40 PM 51.1°F10.6°C 40.1°F4.5°C 66% 5.3 mph ENE8.5 kmh ENE 9.2 mph14.8 kmh 29.61 in1002.7 mb 0.00 in0.0 mm 0.00 in0.0 mm 0.00 in0.0 mm
04:50 PM 50.7°F10.4°C 40.2°F4.6°C 67% 6.4 mph NE10.3 kmh NE 9.8 mph15.8 kmh 29.61 in1002.7 mb 0.00 in0.0 mm 0.00 in0.0 mm 0.00 in0.0 mm
05:00 PM 50.5°F10.3°C 40.8°F4.9°C 69% 6.1 mph ENE9.8 kmh ENE 8.3 mph13.4 kmh 29.62 in1003.0 mb 0.00 in0.0 mm 0.00 in0.0 mm 0.00 in0.0 mm
05:10 PM 50.5°F10.3°C 40.4°F4.7°C 68% 5.7 mph NE9.2 kmh NE 7.6 mph12.2 kmh 29.62 in1003.0 mb 0.00 in0.0 mm 0.00 in0.0 mm 0.00 in0.0 mm
05:20 PM 50.4°F10.2°C 40.2°F4.6°C 68% 6.5 mph E10.5 kmh E 8.3 mph13.4 kmh 29.62 in1003.0 mb 0.00 in0.0 mm 0.00 in0.0 mm 0.00 in0.0 mm
05:30 PM 50.4°F10.2°C 40.2°F4.6°C 68% 4.3 mph NE6.9 kmh NE 6.0 mph9.7 kmh 29.62 in1003.0 mb 0.00 in0.0 mm 0.00 in0.0 mm 0.00 in0.0 mm
05:40 PM 50.4°F10.2°C 41.0°F5.0°C 70% 4.6 mph ENE7.4 kmh ENE 6.0 mph9.7 kmh 29.62 in1003.0 mb 0.00 in0.0 mm 0.00 in0.0 mm 0.00 in0.0 mm
05:50 PM 50.0°F10.0°C 40.2°F4.6°C 69% 5.7 mph ENE9.2 kmh ENE 8.3 mph13.4 kmh 29.61 in1002.7 mb 0.00 in0.0 mm 0.00 in0.0 mm 0.00 in0.0 mm
06:00 PM 50.0°F10.0°C 40.6°F4.8°C 70% 4.5 mph ENE7.2 kmh ENE 6.0 mph9.7 kmh 29.62 in1003.0 mb 0.00 in0.0 mm 0.00 in0.0 mm 0.00 in0.0 mm
06:10 PM 49.6°F9.8°C 40.3°F4.6°C 70% 3.8 mph ENE6.1 kmh ENE 4.5 mph7.2 kmh 29.62 in1003.0 mb 0.00 in0.0 mm 0.00 in0.0 mm 0.00 in0.0 mm
06:20 PM 49.3°F9.6°C 39.9°F4.4°C 70% 5.2 mph NE8.4 kmh NE 7.6 mph12.2 kmh 29.62 in1003.0 mb 0.00 in0.0 mm 0.00 in0.0 mm 0.00 in0.0 mm
06:30 PM 49.1°F9.5°C 39.7°F4.3°C 70% 4.8 mph NE7.7 kmh NE 6.9 mph11.1 kmh 29.62 in1003.0 mb 0.00 in0.0 mm 0.00 in0.0 mm 0.00 in0.0 mm
06:40 PM 49.1°F9.5°C 40.1°F4.5°C 71% 4.0 mph E6.4 kmh E 5.4 mph8.7 kmh 29.62 in1003.0 mb 0.00 in0.0 mm 0.00 in0.0 mm 0.00 in0.0 mm
06:50 PM 48.7°F9.3°C 39.8°F4.3°C 71% 3.2 mph NE5.1 kmh NE 4.5 mph7.2 kmh 29.62 in1003.0 mb 0.00 in0.0 mm 0.00 in0.0 mm 0.00 in0.0 mm
07:00 PM 48.6°F9.2°C 39.6°F4.2°C 71% 3.2 mph ENE5.1 kmh ENE 4.5 mph7.2 kmh 29.62 in1003.0 mb 0.00 in0.0 mm 0.00 in0.0 mm 0.00 in0.0 mm
07:10 PM 48.4°F9.1°C 39.4°F4.1°C 71% 3.5 mph NE5.6 kmh NE 5.4 mph8.7 kmh 29.62 in1003.0 mb 0.00 in0.0 mm 0.00 in0.0 mm 0.00 in0.0 mm
07:20 PM 48.2°F9.0°C 39.2°F4.0°C 71% 3.7 mph NE6.0 kmh NE 5.4 mph8.7 kmh 29.63 in1003.4 mb 0.00 in0.0 mm 0.00 in0.0 mm 0.00 in0.0 mm
07:30 PM 48.0°F8.9°C 39.4°F4.1°C 72% 3.7 mph NE6.0 kmh NE 5.4 mph8.7 kmh 29.63 in1003.4 mb 0.00 in0.0 mm 0.00 in0.0 mm 0.00 in0.0 mm
07:40 PM 48.0°F8.9°C 39.4°F4.1°C 72% 3.6 mph NE5.8 kmh NE 5.4 mph8.7 kmh 29.63 in1003.4 mb 0.00 in0.0 mm 0.00 in0.0 mm 0.00 in0.0 mm
07:50 PM 47.8°F8.8°C 39.3°F4.1°C 72% 2.2 mph ENE3.5 kmh ENE 3.8 mph6.1 kmh 29.63 in1003.4 mb 0.00 in0.0 mm 0.00 in0.0 mm 0.00 in0.0 mm
08:00 PM 47.7°F8.7°C 39.4°F4.1°C 73% 2.1 mph NE3.4 kmh NE 3.1 mph5.0 kmh 29.63 in1003.4 mb 0.00 in0.0 mm 0.00 in0.0 mm 0.00 in0.0 mm
08:10 PM 47.5°F8.6°C 39.3°F4.1°C 73% 2.1 mph ENE3.4 kmh ENE 3.1 mph5.0 kmh 29.63 in1003.4 mb 0.00 in0.0 mm 0.00 in0.0 mm 0.00 in0.0 mm
08:20 PM 47.5°F8.6°C 39.6°F4.2°C 74% 2.3 mph ENE3.7 kmh ENE 3.1 mph5.0 kmh 29.63 in1003.4 mb 0.00 in0.0 mm 0.00 in0.0 mm 0.00 in0.0 mm
08:30 PM 47.3°F8.5°C 39.4°F4.1°C 74% 1.9 mph NE3.1 kmh NE 3.1 mph5.0 kmh 29.64 in1003.7 mb 0.00 in0.0 mm 0.00 in0.0 mm 0.00 in0.0 mm
08:40 PM 47.3°F8.5°C 39.4°F4.1°C 74% 1.5 mph NE2.4 kmh NE 2.2 mph3.5 kmh 29.64 in1003.7 mb 0.00 in0.0 mm 0.00 in0.0 mm 0.00 in0.0 mm
08:50 PM 47.1°F8.4°C 39.6°F4.2°C 75% 2.8 mph NE4.5 kmh NE 3.8 mph6.1 kmh 29.64 in1003.7 mb 0.00 in0.0 mm 0.00 in0.0 mm 0.00 in0.0 mm
09:00 PM 46.9°F8.3°C 39.4°F4.1°C 75% 2.9 mph NE4.7 kmh NE 3.8 mph6.1 kmh 29.64 in1003.7 mb 0.00 in0.0 mm 0.00 in0.0 mm 0.00 in0.0 mm
09:10 PM 46.9°F8.3°C 39.4°F4.1°C 75% 3.0 mph ENE4.8 kmh ENE 4.5 mph7.2 kmh 29.64 in1003.7 mb 0.00 in0.0 mm 0.00 in0.0 mm 0.00 in0.0 mm
09:20 PM 46.9°F8.3°C 39.4°F4.1°C 75% 2.3 mph NE3.7 kmh NE 3.1 mph5.0 kmh 29.63 in1003.4 mb 0.00 in0.0 mm 0.00 in0.0 mm 0.00 in0.0 mm
09:30 PM 46.8°F8.2°C 39.3°F4.1°C 75% 2.0 mph ENE3.2 kmh ENE 3.8 mph6.1 kmh 29.63 in1003.4 mb 0.00 in0.0 mm 0.00 in0.0 mm 0.00 in0.0 mm
09:40 PM 46.8°F8.2°C 39.3°F4.1°C 75% 3.2 mph E5.1 kmh E 4.5 mph7.2 kmh 29.63 in1003.4 mb 0.00 in0.0 mm 0.00 in0.0 mm 0.00 in0.0 mm
09:50 PM 46.6°F8.1°C 39.1°F3.9°C 75% 3.6 mph E5.8 kmh E 6.0 mph9.7 kmh 29.64 in1003.7 mb 0.00 in0.0 mm 0.00 in0.0 mm 0.00 in0.0 mm
10:00 PM 46.4°F8.0°C 38.9°F3.8°C 75% 2.2 mph ENE3.5 kmh ENE 3.1 mph5.0 kmh 29.63 in1003.4 mb 0.00 in0.0 mm 0.00 in0.0 mm 0.00 in0.0 mm
10:10 PM 46.0°F7.8°C 38.9°F3.8°C 76% 3.5 mph E5.6 kmh E 4.5 mph7.2 kmh 29.63 in1003.4 mb 0.00 in0.0 mm 0.00 in0.0 mm 0.00 in0.0 mm
10:20 PM 45.9°F7.7°C 38.7°F3.7°C 76% 3.9 mph NE6.3 kmh NE 6.0 mph9.7 kmh 29.63 in1003.4 mb 0.00 in0.0 mm 0.00 in0.0 mm 0.00 in0.0 mm
10:30 PM 45.7°F7.6°C 38.9°F3.8°C 77% 3.3 mph ENE5.3 kmh ENE 4.5 mph7.2 kmh 29.63 in1003.4 mb 0.00 in0.0 mm 0.00 in0.0 mm 0.00 in0.0 mm
10:40 PM 45.7°F7.6°C 38.9°F3.8°C 77% 3.4 mph ENE5.5 kmh ENE 6.0 mph9.7 kmh 29.64 in1003.7 mb 0.00 in0.0 mm 0.00 in0.0 mm 0.00 in0.0 mm
10:50 PM 45.5°F7.5°C 39.0°F3.9°C 78% 3.1 mph ENE5.0 kmh ENE 6.0 mph9.7 kmh 29.64 in1003.7 mb 0.00 in0.0 mm 0.00 in0.0 mm 0.00 in0.0 mm
11:00 PM 45.5°F7.5°C 39.0°F3.9°C 78% 3.3 mph NE5.3 kmh NE 3.8 mph6.1 kmh 29.63 in1003.4 mb 0.00 in0.0 mm 0.00 in0.0 mm 0.00 in0.0 mm
11:10 PM 45.5°F7.5°C 39.4°F4.1°C 79% 3.5 mph ENE5.6 kmh ENE 4.5 mph7.2 kmh 29.64 in1003.7 mb 0.00 in0.0 mm 0.00 in0.0 mm 0.00 in0.0 mm
11:20 PM 45.3°F7.4°C 40.5°F4.7°C 83% 2.8 mph E4.5 kmh E 4.5 mph7.2 kmh 29.63 in1003.4 mb 0.00 in0.0 mm 0.00 in0.0 mm 0.00 in0.0 mm
11:30 PM 45.0°F7.2°C 40.1°F4.5°C 83% 1.2 mph ENE1.9 kmh ENE 2.2 mph3.5 kmh 29.64 in1003.7 mb 0.00 in0.0 mm 0.00 in0.0 mm 0.00 in0.0 mm
11:40 PM 45.1°F7.3°C 40.6°F4.8°C 84% 0.4 mph SW0.6 kmh SW 2.2 mph3.5 kmh 29.64 in1003.7 mb 0.00 in0.0 mm 0.00 in0.0 mm 0.00 in0.0 mm
11:50 PM 45.3°F7.4°C 40.8°F4.9°C 84% 1.9 mph NNE3.1 kmh NNE 3.1 mph5.0 kmh 29.64 in1003.7 mb 0.00 in0.0 mm 0.00 in0.0 mm 0.00 in0.0 mm